Decoded Metar for YPTN (KATHERINE/TINDAL in AUSTRALIA) (IATA:N/A) | Meteo·Mobile Aviation Weather
aviador You're here:

YPTN Decoded Metar

KATHERINE/TINDAL in AUSTRALIA
Report Time2019-10-19 22:00:00
UTC Time2019-10-19 22:43:51
Flight Rules vfr VFR
Wind140° at 03 kt
W.Decomp.*RWY 14: 3.0 kt HW 0.2 kt LCW
Visibility9999 m
Phenomena:N/A
Clouds:N/A
Expected CloudBase > 6,000 ft AGL from Temp-Dew spread
CeilingNone
Temp27°C (ISA +13)
Dew Point12°C (39% RH)
Heat Index26.8°C
AAT26.5°C
QNH1015 hPa
Density Alt1,946 ft
Elevation358 ft
Report Wrong Elevation
Raw Report
METAR YPTN 192200Z AUTO 14003KT 9999 // NCD 27/12 Q1015=

Extra information for YPTN:More info

Metar Taf Metar & Taf Last 4 Metars F.Rules Stats Wind Profile Meteogram Temp Stats Airport Information Weather charts Add Link Nearby VenuesMetar ALERT Operation Metar Decoded Social comments